<?xml version="1.0" encoding="UTF-8" standalone="no" ?>
<gpx xmlns="http://www.topografix.com/GPX/1/1" xmlns:xsi="http://www.w3.org/2001/XMLSchema-instance" xsi:schemaLocation="http://www.topografix.com/GPX/1/1 http://www.topografix.com/GPX/1/1/gpx.xsd" version="1.1" creator="VisuGPX - https://www.visugpx.com">
  <metadata>
    <name>boucles beaumont</name>
    <desc><![CDATA[boucles beaumont du périgord]]></desc>
  </metadata>
  <trk>
    <name><![CDATA[BBmt38]]></name>
    <trkseg>
      <trkpt lat="44.79505" lon="0.86098">
        <ele>195</ele>
        <time>2009-01-15T09:52:15Z</time>
      </trkpt>
      <trkpt lat="44.79525" lon="0.861">
        <ele>194</ele>
        <time>2009-01-15T09:52:44Z</time>
      </trkpt>
      <trkpt lat="44.7954" lon="0.86083">
        <ele>194</ele>
        <time>2009-01-15T09:53:09Z</time>
      </trkpt>
      <trkpt lat="44.79555" lon="0.8606">
        <ele>197</ele>
        <time>2009-01-15T09:53:14Z</time>
      </trkpt>
      <trkpt lat="44.79568" lon="0.86038">
        <ele>200</ele>
        <time>2009-01-15T09:53:18Z</time>
      </trkpt>
      <trkpt lat="44.79583" lon="0.86018">
        <ele>202</ele>
        <time>2009-01-15T09:53:22Z</time>
      </trkpt>
      <trkpt lat="44.79598" lon="0.85993">
        <ele>203</ele>
        <time>2009-01-15T09:53:26Z</time>
      </trkpt>
      <trkpt lat="44.79613" lon="0.85968">
        <ele>203</ele>
        <time>2009-01-15T09:53:30Z</time>
      </trkpt>
      <trkpt lat="44.79628" lon="0.85948">
        <ele>200</ele>
        <time>2009-01-15T09:53:32Z</time>
      </trkpt>
      <trkpt lat="44.7964" lon="0.85928">
        <ele>198</ele>
        <time>2009-01-15T09:53:36Z</time>
      </trkpt>
      <trkpt lat="44.79655" lon="0.8591">
        <ele>198</ele>
        <time>2009-01-15T09:53:39Z</time>
      </trkpt>
      <trkpt lat="44.79673" lon="0.8589">
        <ele>196</ele>
        <time>2009-01-15T09:53:44Z</time>
      </trkpt>
      <trkpt lat="44.79688" lon="0.85875">
        <ele>196</ele>
        <time>2009-01-15T09:53:48Z</time>
      </trkpt>
      <trkpt lat="44.79708" lon="0.85863">
        <ele>197</ele>
        <time>2009-01-15T09:53:52Z</time>
      </trkpt>
      <trkpt lat="44.79728" lon="0.8585">
        <ele>196</ele>
        <time>2009-01-15T09:53:56Z</time>
      </trkpt>
      <trkpt lat="44.7974" lon="0.85825">
        <ele>195</ele>
        <time>2009-01-15T09:54:00Z</time>
      </trkpt>
      <trkpt lat="44.79755" lon="0.85808">
        <ele>195</ele>
        <time>2009-01-15T09:54:03Z</time>
      </trkpt>
      <trkpt lat="44.7977" lon="0.85788">
        <ele>196</ele>
        <time>2009-01-15T09:54:06Z</time>
      </trkpt>
      <trkpt lat="44.79785" lon="0.8577">
        <ele>197</ele>
        <time>2009-01-15T09:54:09Z</time>
      </trkpt>
      <trkpt lat="44.798" lon="0.85755">
        <ele>197</ele>
        <time>2009-01-15T09:54:12Z</time>
      </trkpt>
      <trkpt lat="44.79815" lon="0.85738">
        <ele>198</ele>
        <time>2009-01-15T09:54:15Z</time>
      </trkpt>
      <trkpt lat="44.79833" lon="0.85723">
        <ele>198</ele>
        <time>2009-01-15T09:54:18Z</time>
      </trkpt>
      <trkpt lat="44.7985" lon="0.85708">
        <ele>200</ele>
        <time>2009-01-15T09:54:21Z</time>
      </trkpt>
      <trkpt lat="44.7987" lon="0.85693">
        <ele>202</ele>
        <time>2009-01-15T09:54:25Z</time>
      </trkpt>
      <trkpt lat="44.79888" lon="0.8568">
        <ele>204</ele>
        <time>2009-01-15T09:54:38Z</time>
      </trkpt>
      <trkpt lat="44.79908" lon="0.85668">
        <ele>204</ele>
        <time>2009-01-15T09:54:42Z</time>
      </trkpt>
      <trkpt lat="44.79928" lon="0.8565">
        <ele>203</ele>
        <time>2009-01-15T09:54:46Z</time>
      </trkpt>
      <trkpt lat="44.79948" lon="0.85638">
        <ele>201</ele>
        <time>2009-01-15T09:54:50Z</time>
      </trkpt>
      <trkpt lat="44.79965" lon="0.85625">
        <ele>202</ele>
        <time>2009-01-15T09:54:54Z</time>
      </trkpt>
      <trkpt lat="44.79983" lon="0.8561">
        <ele>200</ele>
        <time>2009-01-15T09:54:58Z</time>
      </trkpt>
      <trkpt lat="44.8" lon="0.85598">
        <ele>200</ele>
        <time>2009-01-15T09:55:02Z</time>
      </trkpt>
      <trkpt lat="44.8002" lon="0.85588">
        <ele>200</ele>
        <time>2009-01-15T09:55:05Z</time>
      </trkpt>
      <trkpt lat="44.80043" lon="0.85583">
        <ele>198</ele>
        <time>2009-01-15T09:55:09Z</time>
      </trkpt>
      <trkpt lat="44.80063" lon="0.85573">
        <ele>197</ele>
        <time>2009-01-15T09:55:13Z</time>
      </trkpt>
      <trkpt lat="44.8008" lon="0.85565">
        <ele>196</ele>
        <time>2009-01-15T09:55:27Z</time>
      </trkpt>
      <trkpt lat="44.80103" lon="0.85573">
        <ele>197</ele>
        <time>2009-01-15T09:55:32Z</time>
      </trkpt>
      <trkpt lat="44.8012" lon="0.85583">
        <ele>198</ele>
        <time>2009-01-15T09:55:36Z</time>
      </trkpt>
      <trkpt lat="44.8014" lon="0.85595">
        <ele>200</ele>
        <time>2009-01-15T09:55:47Z</time>
      </trkpt>
      <trkpt lat="44.80158" lon="0.85608">
        <ele>205</ele>
        <time>2009-01-15T09:55:51Z</time>
      </trkpt>
      <trkpt lat="44.80178" lon="0.8562">
        <ele>208</ele>
        <time>2009-01-15T09:55:53Z</time>
      </trkpt>
      <trkpt lat="44.80195" lon="0.85633">
        <ele>211</ele>
        <time>2009-01-15T09:55:56Z</time>
      </trkpt>
      <trkpt lat="44.80215" lon="0.85643">
        <ele>213</ele>
        <time>2009-01-15T09:55:59Z</time>
      </trkpt>
      <trkpt lat="44.80233" lon="0.85655">
        <ele>216</ele>
        <time>2009-01-15T09:56:02Z</time>
      </trkpt>
      <trkpt lat="44.80255" lon="0.8567">
        <ele>215</ele>
        <time>2009-01-15T09:56:05Z</time>
      </trkpt>
      <trkpt lat="44.80275" lon="0.85683">
        <ele>216</ele>
        <time>2009-01-15T09:56:08Z</time>
      </trkpt>
      <trkpt lat="44.80295" lon="0.85695">
        <ele>217</ele>
        <time>2009-01-15T09:56:11Z</time>
      </trkpt>
      <trkpt lat="44.80318" lon="0.8571">
        <ele>216</ele>
        <time>2009-01-15T09:56:14Z</time>
      </trkpt>
      <trkpt lat="44.80338" lon="0.85723">
        <ele>216</ele>
        <time>2009-01-15T09:56:17Z</time>
      </trkpt>
      <trkpt lat="44.80355" lon="0.8573">
        <ele>212</ele>
        <time>2009-01-15T09:56:32Z</time>
      </trkpt>
      <trkpt lat="44.80373" lon="0.8574">
        <ele>210</ele>
        <time>2009-01-15T09:56:35Z</time>
      </trkpt>
      <trkpt lat="44.80393" lon="0.85755">
        <ele>208</ele>
        <time>2009-01-15T09:56:38Z</time>
      </trkpt>
      <trkpt lat="44.80418" lon="0.8577">
        <ele>205</ele>
        <time>2009-01-15T09:56:41Z</time>
      </trkpt>
      <trkpt lat="44.80438" lon="0.85783">
        <ele>204</ele>
        <time>2009-01-15T09:56:44Z</time>
      </trkpt>
      <trkpt lat="44.8046" lon="0.8579">
        <ele>202</ele>
        <time>2009-01-15T09:56:47Z</time>
      </trkpt>
      <trkpt lat="44.80483" lon="0.85798">
        <ele>200</ele>
        <time>2009-01-15T09:56:50Z</time>
      </trkpt>
      <trkpt lat="44.80505" lon="0.85805">
        <ele>198</ele>
        <time>2009-01-15T09:56:54Z</time>
      </trkpt>
      <trkpt lat="44.80525" lon="0.85815">
        <ele>197</ele>
        <time>2009-01-15T09:57:11Z</time>
      </trkpt>
      <trkpt lat="44.80548" lon="0.85823">
        <ele>194</ele>
        <time>2009-01-15T09:57:16Z</time>
      </trkpt>
      <trkpt lat="44.80565" lon="0.8583">
        <ele>193</ele>
        <time>2009-01-15T09:57:20Z</time>
      </trkpt>
      <trkpt lat="44.80583" lon="0.85838">
        <ele>192</ele>
        <time>2009-01-15T09:57:24Z</time>
      </trkpt>
      <trkpt lat="44.80605" lon="0.85843">
        <ele>190</ele>
        <time>2009-01-15T09:57:29Z</time>
      </trkpt>
      <trkpt lat="44.80628" lon="0.85845">
        <ele>189</ele>
        <time>2009-01-15T09:57:34Z</time>
      </trkpt>
      <trkpt lat="44.80648" lon="0.85848">
        <ele>188</ele>
        <time>2009-01-15T09:57:38Z</time>
      </trkpt>
      <trkpt lat="44.80668" lon="0.8585">
        <ele>186</ele>
        <time>2009-01-15T09:57:42Z</time>
      </trkpt>
    </trkseg>
  </trk>
</gpx>